Flight Track Log - Related Links

Times and Time Zones

All times are in EDT time to prevent confusion due to time zone crossing. See the EZY6723 flight status page for this flight to view local times or setup timezone preferences in your user account.

Time Position Orientation Groundspeed Altitude Reporting Facility
EDT Latitude Longitude Course Direction KTS MPH feet Rate Location/Type
Mon 08:41:00 AM 54.0962 -5.1853 133° Southeast  Level Estimated
Mon 08:42:00 AM 54.0396 -5.0837 133° Southeast  Level Estimated
Mon 08:43:00 AM 53.9829 -4.9825 134° Southeast  Level Estimated
Mon 08:44:00 AM 53.9261 -4.8815 134° Southeast  Level Estimated
Mon 08:45:00 AM 53.8692 -4.7809 134° Southeast  Level Estimated
Mon 08:46:00 AM 53.8123 -4.6804 134° Southeast  Level Estimated
Mon 08:47:00 AM 53.7552 -4.5803 134° Southeast  Level Estimated
Mon 08:48:00 AM 53.6981 -4.4804 134° Southeast  Level Estimated
Mon 08:49:00 AM 53.6409 -4.3808 134° Southeast  Level Estimated
Mon 08:50:00 AM 53.5836 -4.2815 134° Southeast  Level Estimated
Mon 08:51:00 AM 53.5263 -4.1824 134° Southeast  Level Estimated
Mon 08:52:00 AM 53.4688 -4.0837 134° Southeast  Level Estimated
Mon 08:53:00 AM 53.4113 -3.9851 134° Southeast  Level Estimated
Mon 08:54:00 AM 53.3537 -3.8869 134° Southeast  Level Estimated
Mon 08:55:00 AM 53.2884 -3.7761 135° Southeast  Level Estimated
Mon 08:56:00 AM 53.2231 -3.6656 135° Southeast  Level Estimated
Mon 08:57:00 AM 53.1576 -3.5554 135° Southeast  Level Estimated
Mon 08:58:00 AM 53.0921 -3.4457 135° Southeast  Level Estimated
Mon 08:59:00 AM 53.0264 -3.3362 135° Southeast  Level Estimated
Mon 09:00:00 AM 52.9607 -3.2271 135° Southeast  Level Estimated
Mon 09:01:00 AM 52.8948 -3.1183 135° Southeast  Level Estimated
Mon 09:02:00 AM 52.8289 -3.0098 135° Southeast  Level Estimated
Mon 09:03:00 AM 52.7628 -2.9016 135° Southeast  Level Estimated
Mon 09:04:00 AM 52.6967 -2.7938 135° Southeast  Level Estimated
Mon 09:05:00 AM 52.6304 -2.6864 135° Southeast  Level Estimated
Mon 09:06:00 AM 52.5641 -2.5792 136° Southeast  Level Estimated
Mon 09:07:00 AM 52.4977 -2.4724 136° Southeast  Level Estimated
Mon 09:08:00 AM 52.4311 -2.3658 136° Southeast  Level Estimated
Mon 09:09:00 AM 52.3645 -2.2597 136° Southeast  Level Estimated
Mon 09:10:00 AM 52.2977 -2.1538 136° Southeast  Level Estimated
Mon 09:11:00 AM 52.2309 -2.0482 136° Southeast  Level Estimated
Mon 09:12:00 AM 52.1640 -1.9430 136° Southeast  Level Estimated
Mon 09:13:00 AM 52.0970 -1.8381 136° Southeast  Level Estimated
Mon 09:14:00 AM 52.0299 -1.7335 136° Southeast  Level Estimated
Mon 09:15:00 AM 51.9627 -1.6292 136° Southeast  Level Estimated
Mon 09:16:00 AM 51.8954 -1.5252 136° Southeast  Level Estimated
Mon 09:17:00 AM 51.8280 -1.4216 136° Southeast  Level Estimated
Mon 09:18:00 AM 51.7606 -1.3182 137° Southeast  Level Estimated
Mon 09:19:00 AM 51.6930 -1.2151 137° Southeast  Level Estimated
Mon 09:20:00 AM 51.6254 -1.1124 137° Southeast  Level Estimated
Mon 09:21:00 AM 51.5576 -1.0100 137° Southeast  Level Estimated
Mon 09:22:00 AM 51.4898 -0.9078 137° Southeast  Level Estimated
Mon 09:23:00 AM 51.4219 -0.8060 137° Southeast  Level Estimated
Mon 09:24:00 AM 51.3539 -0.7045 137° Southeast  Level Estimated
Mon 09:25:00 AM 51.2858 -0.6033 137° Southeast  Level Estimated
Mon 09:26:00 AM 51.2176 -0.5023 137° Southeast  Level Estimated
Mon 09:27:00 AM 51.1493 -0.4017 137° Southeast  Level Estimated
Mon 09:28:00 AM 51.0810 -0.3014 137° Southeast  Level Estimated
Mon 09:29:00 AM 51.0126 -0.2014 137° Southeast  Level Estimated
Mon 09:30:00 AM 50.9440 -0.1016 137° Southeast  Level Estimated
Mon 09:31:00 AM 50.8754 -0.0022 138° Southeast  Level Estimated
Mon 09:32:00 AM 50.8067 0.0970 138° Southeast  Level Estimated
Mon 09:33:00 AM 50.7380 0.1958 138° Southeast  Level Estimated
Mon 09:34:00 AM 50.6691 0.2944 138° Southeast  Level Estimated
Mon 09:35:00 AM 50.6002 0.3927 138° Southeast  Level Estimated
Mon 09:36:00 AM 50.5312 0.4907 138° Southeast  Level Estimated
Mon 09:37:00 AM 50.4621 0.5884 138° Southeast  Level Estimated
Mon 09:38:00 AM 50.3929 0.6858 138° Southeast  Level Estimated
Mon 09:39:00 AM 50.3236 0.7829 138° Southeast  Level Estimated
Mon 09:40:00 AM 50.2517 0.8834 138° Southeast  Level Estimated
Mon 09:41:00 AM 50.1797 0.9835 138° Southeast  Level Estimated
Mon 09:42:00 AM 50.1076 1.0833 138° Southeast  Level Estimated
Mon 09:43:00 AM 50.0354 1.1829 138° Southeast  Level Estimated
Mon 09:44:00 AM 49.9632 1.2821 139° Southeast  Level Estimated
Mon 09:45:00 AM 49.8908 1.3810 139° Southeast  Level Estimated
Mon 09:46:00 AM 49.8184 1.4797 139° Southeast  Level Estimated
Mon 09:47:00 AM 49.7459 1.5780 139° Southeast  Level Estimated
Mon 09:48:00 AM 49.6733 1.6760 139° Southeast  Level Estimated
Mon 09:49:00 AM 49.6006 1.7738 139° Southeast  Level Estimated
Mon 09:50:00 AM 49.5278 1.8713 139° Southeast  Level Estimated
Mon 09:51:00 AM 49.4550 1.9684 139° Southeast  Level Estimated
Mon 09:52:00 AM 49.3821 2.0653 139° Southeast  Level Estimated
Mon 09:53:00 AM 49.3091 2.1619 139° Southeast  Level Estimated
Mon 09:54:00 AM 49.2360 2.2582 139° Southeast  Level Estimated
Mon 09:55:00 AM 49.1628 2.3543 139° Southeast  Level Estimated
Mon 09:56:00 AM 49.0896 2.4500 139° Southeast  Level Estimated
Mon 09:57:00 AM 49.0163 2.5455 139° Southeast  Level Estimated
Mon 09:58:00 AM 49.0128 2.5500 140° Southeast  Level Estimated
Mon 09:59:00 AM 49.0128 2.5500 180° South  Level Estimated
Mon 10:00:00 AM 49.0128 2.5500 180° South  Level Estimated
Mon 10:01:00 AM 49.0128 2.5500 180° South  Level Estimated
Mon 10:02:00 AM 49.0128 2.5500 180° South  Level Estimated
Mon 10:03:00 AM 49.0128 2.5500 180° South  Level Estimated
Mon 10:04:00 AM 49.0128 2.5500 180° South  Level Estimated
Mon 10:05:00 AM 49.0128 2.5500 180° South  Level Estimated
Mon 10:06:00 AM 49.0128 2.5500 180° South  Level Estimated
Mon 10:07:00 AM 49.0128 2.5500 180° South  Level Estimated
Mon 10:08:00 AM 49.0128 2.5500 180° South  Level Estimated

Login

Don't have an account? Register now (free) for customized features, flight alerts, and more!